METAR Data
IDs: Format: Raw Decoded Include TAF

Data at: 0654 UTC 22 Oct 2021

KBFI 220553Z 14008KT 8SM -RA OVC070 13/12 A2981 RMK AO2 SLP094 P0005 60032 T01280122 10206 20128 51007 $
KBFI 220453Z 15006KT 10SM -RA FEW020 OVC070 13/12 A2980 RMK AO2 SLP090 P0006 T01280122 $
KBFI 220353Z 14008KT 4SM RA BR BKN016 OVC041 13/12 A2981 RMK AO2 SLP094 P0018 T01280122 $
KBFI 220253Z 14007KT 7SM -RA BKN016 BKN022 OVC039 13/12 A2979 RMK AO2 SLP086 P0003 60003 T01330117 51046 $
KBFI 220238Z 13007KT 10SM -RA BKN017 BKN041 OVC080 13/12 A2979 RMK AO2 P0002 T01330117 $
KBFI 220153Z 22011G23KT 9SM -RA OVC080 14/11 A2978 RMK AO2 RAB01 SLP083 P0000 T01390111 $
KBFI 220053Z 25010G22KT 10SM FEW080 SCT090 BKN120 16/09 A2971 RMK AO2 PK WND 25026/0040 RAB13E37 SLP059 P0000 T01560094 $
KBFI 212353Z 13015G27KT 10SM OVC080 21/06 A2965 RMK AO2 PK WND 13027/2350 SLP041 60000 T02060056 10206 20178 56035 $
KBFI 212253Z 12015G24KT 10SM OVC085 21/06 A2967 RMK AO2 RAB18E33 SLP046 P0000 T02060056 $
KBFI 212153Z 13015G23KT 10SM OVC100 21/05 A2971 RMK AO2 PRESFR SLP060 T02060050
KBFI 212053Z 12010KT 10SM BKN100 21/06 A2975 RMK AO2 SLP075 T02060056 58017
KBFI 211953Z 14015KT 10SM SCT085 20/06 A2977 RMK AO2 SLP081 T02000061
KBFI 211853Z 14014G22KT 10SM FEW085 19/06 A2979 RMK AO2 PK WND 13027/1840 SLP087 T01940056
KBFI 211753Z 13015G22KT 10SM SCT075 BKN090 18/05 A2981 RMK AO2 SLP093 T01830050 10183 20083 58019
KBFI 211653Z 13010G22KT 10SM BKN080 17/06 A2983 RMK AO2 SLP100 T01670056
KBFI 211553Z 00000KT 10SM SCT140 11/08 A2986 RMK AO2 SLP111 T01110078
KBFI 211453Z 26003KT 10SM CLR 09/07 A2986 RMK AO2 SLP112 T00890072 58003
KBFI 211353Z 32003KT 10SM CLR 09/07 A2988 RMK AO2 SLP117 T00940072
KBFI 211253Z 00000KT 10SM CLR 09/08 A2989 RMK AO2 SLP120 T00940078
KBFI 211153Z 00000KT 10SM SCT120 09/07 A2987 RMK AO2 SLP115 70010 T00890072 10117 20078 58021
KBFI 211053Z 27003KT 10SM CLR 09/08 A2990 RMK AO2 SLP123 T00940078
KBFI 210953Z 00000KT 10SM CLR 09/08 A2993 RMK AO2 SLP134 T00940078
KBFI 210853Z 00000KT 10SM FEW100 09/08 A2993 RMK AO2 SLP136 T00890078 58015
KBFI 210753Z 00000KT 10SM CLR 10/08 A2996 RMK AO2 SLP145 T01000083 401670089